• Join FlightAware (Why Join?)
  • Login
  • US Flag 
04:26PM EDT


 

Airport Tracker/Info


-or-


 

Live Flight TrackerFlight Track Log ✈ N733CP ✈ 20-Apr-2013 ✈ KAUS - T82

Flight Track Log - Related Links

Times and Time Zones

All times are in EDT time to prevent confusion due to time zone crossing. See the N733CP flight status page for this flight to view local times or setup timezone preferences in your user account.

Time Position Orientation Groundspeed Altitude Reporting Facility
EDT Latitude Longitude Course Direction KTS MPH feet Rate Location/Type
10:10PM 30.1792 -97.7044 273° West 67 77 2,400  Level Houston Center
10:11PM 30.1831 -97.7311 280° West 75 86 3,000 540 Climbing Houston Center
10:12PM 30.1858 -97.7575 277° West 80 92 3,500 480 Climbing Houston Center
10:13PM 30.1878 -97.7814 275° West 77 89 4,000 420 Climbing Houston Center
10:14PM 30.2052 -97.9178 273° West  Level Estimated
10:14PM 30.1881 -97.8053 271° West 74 85 4,400  Level Houston Center
10:15PM 30.2069 -97.9592 273° West  Level Estimated
10:15PM 30.1886 -97.8292 272° West 74 85 4,700  Level Houston Center
10:16PM 30.1814 -97.8592 254° West 88 101 4,700 -120 Level Houston Center
10:17PM 30.1742 -97.8972 258° West 114 131 4,500 -60 Descending Houston Center
10:18PM 30.1697 -97.9333 262° West 106 122 4,600  Climbing Houston Center
10:19PM 30.1669 -97.9636 264° West 97 112 4,500  Descending Houston Center
10:20PM 30.1711 -97.9986 278° West 106 122 4,600 120 Climbing Houston Center
10:21PM 30.1722 -98.0294 272° West 97 112 4,800  Climbing Houston Center
10:22PM 30.1694 -98.0600 264° West 99 114 4,600 -180 Descending Houston Center
10:23PM 30.1633 -98.0939 258° West 102 117 4,500 -180 Descending Houston Center
10:24PM 30.1656 -98.1294 274° West 109 125 4,300 -60 Descending Houston Center
10:25PM 30.1692 -98.1639 277° West 108 124 4,400 60 Climbing Houston Center
10:26PM 30.1833 -98.1961 297° West 108 124 4,500 60 Climbing Houston Center
10:27PM 30.1911 -98.2278 286° West 104 120 4,600 60 Climbing Houston Center
10:28PM 30.1950 -98.2603 278° West 103 119 4,700  Climbing Houston Center
10:29PM 30.1961 -98.2925 272° West 101 116 4,700 -60 Level Houston Center
10:30PM 30.1947 -98.3264 267° West 106 122 4,600 -60 Descending Houston Center
10:31PM 30.1925 -98.3606 266° West 107 123 4,600  Level Houston Center
10:32PM 30.1897 -98.3919 264° West 101 116 4,600  Level Houston Center
10:33PM 30.1875 -98.4258 266° West 104 120 4,600  Level Houston Center
10:34PM 30.1856 -98.4617 266° West 107 123 4,600  Level Houston Center
10:35PM 30.1914 -98.4956 281° West 111 128 4,600  Level Houston Center
10:36PM 30.2019 -98.5331 288° West 115 132 4,600  Level Houston Center
10:37PM 30.2075 -98.5667 281° West 109 125 4,700  Climbing Houston Center
10:38PM 30.2064 -98.5997 268° West 104 120 4,700 -120 Level Houston Center
10:39PM 30.2069 -98.6350 271° West 109 125 4,500 -180 Descending Houston Center
10:40PM 30.2072 -98.6744 270° West 120 138 4,400 -60 Descending Houston Center
10:41PM 30.2056 -98.7097 267° West 114 131 4,400  Level Houston Center